Terminal Aerodrome Forecast
Issued by NWS

Home | Current Version | Previous Version | Text Only | Print | Product List | Glossary On
Versions: 1 2 3 4 5 6 7 8 9 10 11 12 13 14 15 16
000
FTUS45 KABQ 240807 AAA
TAFTCC
TAF AMD
KTCC 240807Z 2408/2506 21006KT P6SM SCT019
     FM240900 19010KT 5SM BR BKN015
     FM241500 19016KT P6SM SCT030 SCT090
     FM242100 18016G24KT P6SM SCT090
     FM250200 15016KT P6SM VCTS BKN040CB=

USA.gov is the U.S. government's official web portal to all federal, state and local government web resources and services.